Time;durP1;ratioP1;P1;durP2;ratioP2;P2;SDS_P1;SDS_P2;PMS_P1;PMS_P2;Temp;Humidity;BMP_temperature;BMP_pressure;BME280_temperature;BME280_humidity;BME280_pressure;Samples;Min_cycle;Max_cycle;Signal;HPM_P1;HPM_P2
2022/06/03 00:01:22;;;;;;;27.15;4.50;;;;;;;;;;5030264;28;20053;-43
2022/06/03 00:03:56;;;;;;;34.08;4.65;;;;;;;;;;5030360;28;20026;-43
2022/06/03 00:06:31;;;;;;;27.40;5.15;;;;;;;;;;5012475;28;20071;-41
2022/06/03 00:09:05;;;;;;;28.80;4.97;;;;;;;;;;5030538;28;20061;-45
2022/06/03 00:11:32;;;;;;;24.23;5.68;;;;;;;;;;5031922;28;20511;-45
2022/06/03 00:14:12;;;;;;;25.42;5.25;;;;;;;;;;5042979;28;20103;-43
2022/06/03 00:16:49;;;;;;;25.83;5.05;;;;;;;;;;5049440;28;20104;-47
2022/06/03 00:19:29;;;;;;;22.45;5.18;;;;;;;;;;5049261;28;20024;-47
2022/06/03 00:22:03;;;;;;;24.40;4.93;;;;;;;;;;5051129;28;20040;-45
2022/06/03 00:24:38;;;;;;;24.85;4.63;;;;;;;;;;5050023;28;20501;-45
2022/06/03 00:27:05;;;;;;;27.50;7.78;;;;;;;;;;5050700;28;20055;-45
2022/06/03 00:29:32;;;;;;;28.45;7.90;;;;;;;;;;5051146;28;20394;-46
2022/06/03 00:32:14;;;;;;;26.42;8.05;;;;;;;;;;5031562;28;20094;-44
2022/06/03 00:34:50;;;;;;;31.67;7.82;;;;;;;;;;5052688;28;20491;-44
2022/06/03 00:37:32;;;;;;;23.73;6.57;;;;;;;;;;5053902;28;20057;-45
2022/06/03 00:40:12;;;;;;;30.27;7.13;;;;;;;;;;5017727;28;20057;-43
2022/06/03 00:42:38;;;;;;;27.65;6.28;;;;;;;;;;5013949;28;20034;-45
2022/06/03 00:45:09;;;;;;;28.02;7.47;;;;;;;;;;5013122;28;20041;-49
2022/06/03 00:47:54;;;;;;;32.70;8.32;;;;;;;;;;5011762;28;20901;-45
2022/06/03 00:50:39;;;;;;;28.63;8.63;;;;;;;;;;5011844;28;20053;-45
2022/06/03 00:53:09;;;;;;;36.60;8.95;;;;;;;;;;5013030;28;20112;-46
2022/06/03 00:55:57;;;;;;;28.23;7.93;;;;;;;;;;5013788;28;20037;-42
2022/06/03 00:58:42;;;;;;;29.30;8.05;;;;;;;;;;5014260;28;20061;-50
2022/06/03 01:01:09;;;;;;;26.30;7.82;;;;;;;;;;5013579;28;20045;-46
2022/06/03 01:03:45;;;;;;;28.23;9.02;;;;;;;;;;5014139;28;20137;-44
2022/06/03 01:06:18;;;;;;;33.63;8.65;;;;;;;;;;5012561;28;20021;-46
2022/06/03 01:08:59;;;;;;;30.00;7.68;;;;;;;;;;5012371;28;20132;-53
2022/06/03 01:11:39;;;;;;;30.40;8.68;;;;;;;;;;5013562;28;20849;-59
2022/06/03 01:14:24;;;;;;;43.85;8.70;;;;;;;;;;5031632;28;20044;-47
2022/06/03 01:16:58;;;;;;;43.40;7.88;;;;;;;;;;5032111;28;20025;-45
2022/06/03 01:19:30;;;;;;;27.45;8.05;;;;;;;;;;5031911;28;20503;-51
2022/06/03 01:22:06;;;;;;;32.47;7.25;;;;;;;;;;5032675;28;20025;-46
2022/06/03 01:24:45;;;;;;;25.55;8.05;;;;;;;;;;5031980;28;20434;-47
2022/06/03 01:27:19;;;;;;;31.73;8.73;;;;;;;;;;5032509;28;20087;-46
2022/06/03 01:29:58;;;;;;;24.85;7.03;;;;;;;;;;5032541;28;20041;-43
2022/06/03 01:32:28;;;;;;;30.25;7.70;;;;;;;;;;5031323;28;20080;-43
2022/06/03 01:35:13;;;;;;;28.23;6.63;;;;;;;;;;5032273;28;20087;-47
2022/06/03 01:37:53;;;;;;;30.58;7.00;;;;;;;;;;5032278;28;20037;-48
2022/06/03 01:40:49;;;;;;;21.00;6.53;;;;;;;;;;5032442;28;20779;-49
2022/06/03 01:43:22;;;;;;;23.67;6.82;;;;;;;;;;4961413;28;20138;-47
2022/06/03 01:45:58;;;;;;;26.63;7.45;;;;;;;;;;5031196;28;20030;-44
2022/06/03 01:48:25;;;;;;;24.58;6.70;;;;;;;;;;5032000;28;20052;-49
2022/06/03 01:51:13;;;;;;;33.63;8.43;;;;;;;;;;5034524;28;20464;-49
2022/06/03 01:53:46;;;;;;;23.55;9.18;;;;;;;;;;5033655;28;20029;-53
2022/06/03 01:56:31;;;;;;;34.78;11.98;;;;;;;;;;5032222;28;20041;-44
2022/06/03 01:59:02;;;;;;;34.50;12.98;;;;;;;;;;5031709;28;20030;-44
2022/06/03 02:01:37;;;;;;;31.83;11.88;;;;;;;;;;5031865;28;20045;-43
2022/06/03 02:04:11;;;;;;;29.92;12.40;;;;;;;;;;5032482;28;20021;-45
2022/06/03 02:06:50;;;;;;;28.52;11.35;;;;;;;;;;5031918;28;20045;-44
2022/06/03 02:09:35;;;;;;;31.80;11.82;;;;;;;;;;5032048;28;20045;-42
2022/06/03 02:12:08;;;;;;;36.42;12.10;;;;;;;;;;5032699;28;20780;-44
2022/06/03 02:14:53;;;;;;;31.08;13.43;;;;;;;;;;5032223;28;20055;-45
2022/06/03 02:17:23;;;;;;;33.95;12.98;;;;;;;;;;5031570;28;20029;-43
2022/06/03 02:19:56;;;;;;;29.20;11.48;;;;;;;;;;5012968;28;20034;-45
2022/06/03 02:22:46;;;;;;;31.83;11.15;;;;;;;;;;5012107;28;20029;-47
2022/06/03 02:25:28;;;;;;;31.92;10.68;;;;;;;;;;5010728;28;20026;-46
2022/06/03 02:27:58;;;;;;;24.92;10.38;;;;;;;;;;5012164;28;20026;-46
2022/06/03 02:30:31;;;;;;;29.20;11.13;;;;;;;;;;5011986;28;20156;-44
2022/06/03 02:33:16;;;;;;;27.33;10.30;;;;;;;;;;5012527;28;20079;-46
2022/06/03 02:35:50;;;;;;;29.42;10.77;;;;;;;;;;5037970;28;20013;-44
2022/06/03 02:38:29;;;;;;;22.05;9.18;;;;;;;;;;5036981;28;20033;-45
2022/06/03 02:41:14;;;;;;;35.20;8.77;;;;;;;;;;5030579;28;20516;-43
2022/06/03 02:43:48;;;;;;;27.17;8.30;;;;;;;;;;5031159;28;20028;-50
2022/06/03 02:46:31;;;;;;;23.33;8.80;;;;;;;;;;5030818;28;20040;-44
2022/06/03 02:49:16;;;;;;;25.98;8.02;;;;;;;;;;5031131;28;20427;-44
2022/06/03 02:51:58;;;;;;;21.98;8.45;;;;;;;;;;5030726;28;20045;-45
2022/06/03 02:54:32;;;;;;;17.05;7.82;;;;;;;;;;5030519;28;20567;-44
2022/06/03 02:57:10;;;;;;;24.65;8.52;;;;;;;;;;5030916;28;20107;-45
2022/06/03 02:59:55;;;;;;;32.08;8.10;;;;;;;;;;5034784;28;20021;-48
2022/06/03 03:02:25;;;;;;;21.13;8.30;;;;;;;;;;5046105;28;20079;-44
2022/06/03 03:05:17;;;;;;;24.00;8.18;;;;;;;;;;5035559;28;20033;-44
2022/06/03 03:08:03;;;;;;;20.00;7.13;;;;;;;;;;5032034;28;20029;-45
2022/06/03 03:10:48;;;;;;;23.08;7.05;;;;;;;;;;5032082;28;20120;-45
2022/06/03 03:13:33;;;;;;;22.00;6.95;;;;;;;;;;5032060;28;20029;-45
2022/06/03 03:16:02;;;;;;;22.25;7.97;;;;;;;;;;5033345;28;20435;-47
2022/06/03 03:18:32;;;;;;;24.23;7.40;;;;;;;;;;5033129;28;20025;-46
2022/06/03 03:21:08;;;;;;;24.80;7.15;;;;;;;;;;5032359;28;20488;-43
2022/06/03 03:23:47;;;;;;;21.00;6.43;;;;;;;;;;5031812;28;20430;-46
2022/06/03 03:26:38;;;;;;;30.75;7.15;;;;;;;;;;5032412;28;20110;-44
2022/06/03 03:29:05;;;;;;;21.00;6.57;;;;;;;;;;5031748;28;20029;-45
2022/06/03 03:31:44;;;;;;;20.77;7.05;;;;;;;;;;5032737;28;20041;-44
2022/06/03 03:34:11;;;;;;;16.67;7.07;;;;;;;;;;5033589;28;20042;-44
2022/06/03 03:36:44;;;;;;;17.40;6.47;;;;;;;;;;5033496;28;20494;-44
2022/06/03 03:39:20;;;;;;;18.15;6.10;;;;;;;;;;5032351;28;20030;-44
2022/06/03 03:42:09;;;;;;;23.67;6.55;;;;;;;;;;5031441;28;20033;-47
2022/06/03 03:44:48;;;;;;;17.55;6.32;;;;;;;;;;5031922;28;20124;-45
2022/06/03 03:47:34;;;;;;;24.30;6.03;;;;;;;;;;5031744;28;20072;-45
2022/06/03 03:50:19;;;;;;;18.95;6.13;;;;;;;;;;5031741;28;20044;-44
2022/06/03 03:53:09;;;;;;;18.20;6.43;;;;;;;;;;5014493;28;20422;-45
2022/06/03 03:55:54;;;;;;;20.00;5.60;;;;;;;;;;5012461;28;20045;-47
2022/06/03 03:58:41;;;;;;;16.95;5.47;;;;;;;;;;5031128;28;20032;-45
2022/06/03 04:01:10;;;;;;;15.35;5.63;;;;;;;;;;5010792;28;20050;-45
2022/06/03 04:03:56;;;;;;;14.05;4.82;;;;;;;;;;5031298;28;20060;-49
2022/06/03 04:06:23;;;;;;;13.65;5.50;;;;;;;;;;5031444;28;20828;-45
2022/06/03 04:09:19;;;;;;;14.50;5.55;;;;;;;;;;5031403;28;20052;-45
2022/06/03 04:12:08;;;;;;;13.73;4.90;;;;;;;;;;5026092;28;20045;-44
2022/06/03 04:14:53;;;;;;;12.93;5.35;;;;;;;;;;5035508;28;20052;-46
2022/06/03 04:17:32;;;;;;;14.95;5.18;;;;;;;;;;5035013;28;20026;-45
2022/06/03 04:20:02;;;;;;;13.10;4.93;;;;;;;;;;5035793;28;20041;-44
2022/06/03 04:22:38;;;;;;;13.13;5.50;;;;;;;;;;5035433;28;20025;-45
2022/06/03 04:25:20;;;;;;;9.13;4.40;;;;;;;;;;5035650;28;20067;-44
2022/06/03 04:28:02;;;;;;;12.10;4.60;;;;;;;;;;5035217;28;20045;-45
2022/06/03 04:30:41;;;;;;;13.18;4.78;;;;;;;;;;5035592;28;20112;-45
2022/06/03 04:33:26;;;;;;;8.00;4.20;;;;;;;;;;5035213;28;20028;-47
2022/06/03 04:35:54;;;;;;;13.95;4.13;;;;;;;;;;5034554;28;20030;-47
2022/06/03 04:38:24;;;;;;;9.98;4.50;;;;;;;;;;5035431;28;20095;-45
2022/06/03 04:40:54;;;;;;;10.60;4.35;;;;;;;;;;5035294;28;20060;-47
2022/06/03 04:43:39;;;;;;;7.95;3.97;;;;;;;;;;5034891;28;20030;-44
2022/06/03 04:46:19;;;;;;;9.77;4.25;;;;;;;;;;5035318;28;20368;-46
2022/06/03 04:49:04;;;;;;;10.75;4.30;;;;;;;;;;5034880;28;20104;-46
2022/06/03 04:51:40;;;;;;;13.48;4.60;;;;;;;;;;5034153;28;20033;-44
2022/06/03 04:54:26;;;;;;;8.25;3.97;;;;;;;;;;5034498;28;20025;-47
2022/06/03 04:56:59;;;;;;;11.50;4.40;;;;;;;;;;5034098;28;20037;-44
2022/06/03 04:59:44;;;;;;;9.15;3.83;;;;;;;;;;5034734;28;20120;-45
2022/06/03 05:02:26;;;;;;;10.95;3.78;;;;;;;;;;5034821;28;20087;-45
2022/06/03 05:05:11;;;;;;;12.85;3.88;;;;;;;;;;5034235;28;20036;-47
2022/06/03 05:07:56;;;;;;;9.75;3.75;;;;;;;;;;5034722;28;20112;-46
2022/06/03 05:10:32;;;;;;;12.23;4.03;;;;;;;;;;5033667;28;20049;-45
2022/06/03 05:12:59;;;;;;;7.85;3.90;;;;;;;;;;5034776;28;20100;-45
2022/06/03 05:15:44;;;;;;;9.98;3.35;;;;;;;;;;5034117;28;20312;-45
2022/06/03 05:18:25;;;;;;;7.78;3.63;;;;;;;;;;5034752;28;20040;-50
2022/06/03 05:21:22;;;;;;;8.68;3.70;;;;;;;;;;5033206;28;20029;-48
2022/06/03 05:24:07;;;;;;;9.60;3.42;;;;;;;;;;5034345;28;20472;-47
2022/06/03 05:26:45;;;;;;;9.85;3.47;;;;;;;;;;5034624;28;20052;-45
2022/06/03 05:29:20;;;;;;;7.75;3.03;;;;;;;;;;5033604;28;20037;-50
2022/06/03 05:32:06;;;;;;;10.32;3.13;;;;;;;;;;5034394;28;20120;-45
2022/06/03 05:34:51;;;;;;;7.43;2.88;;;;;;;;;;5034307;28;20545;-45
2022/06/03 05:37:37;;;;;;;6.32;2.78;;;;;;;;;;5034055;28;20030;-48
2022/06/03 05:40:11;;;;;;;7.13;3.10;;;;;;;;;;5016520;28;20060;-46
2022/06/03 05:43:01;;;;;;;5.97;3.08;;;;;;;;;;5033653;28;20480;-45
2022/06/03 05:45:46;;;;;;;8.45;2.85;;;;;;;;;;5034166;28;20506;-45
2022/06/03 05:48:31;;;;;;;9.23;3.00;;;;;;;;;;5033899;28;20029;-45
2022/06/03 05:51:07;;;;;;;6.47;3.05;;;;;;;;;;5033776;28;20025;-45
2022/06/03 05:53:51;;;;;;;8.00;2.42;;;;;;;;;;5033637;28;20044;-45
2022/06/03 05:56:24;;;;;;;8.05;3.00;;;;;;;;;;5033745;28;20041;-46
2022/06/03 05:59:12;;;;;;;7.22;3.15;;;;;;;;;;5033350;28;20034;-47
2022/06/03 06:01:58;;;;;;;5.82;2.70;;;;;;;;;;5015968;28;20049;-48
2022/06/03 06:04:43;;;;;;;5.00;2.42;;;;;;;;;;5032667;28;20025;-45
2022/06/03 06:07:24;;;;;;;6.95;2.85;;;;;;;;;;5032860;28;20049;-46
2022/06/03 06:09:54;;;;;;;5.83;2.97;;;;;;;;;;5033563;28;20084;-45
2022/06/03 06:12:21;;;;;;;6.55;2.88;;;;;;;;;;5033251;28;20506;-45
2022/06/03 06:15:07;;;;;;;6.20;2.80;;;;;;;;;;5032936;28;20026;-45
2022/06/03 06:17:53;;;;;;;6.07;2.70;;;;;;;;;;5033309;28;20104;-47
2022/06/03 06:20:38;;;;;;;6.80;2.80;;;;;;;;;;5032986;28;20041;-45
2022/06/03 06:23:16;;;;;;;6.43;2.78;;;;;;;;;;5033211;28;20399;-44
2022/06/03 06:25:51;;;;;;;4.43;2.60;;;;;;;;;;5032945;28;20048;-45
2022/06/03 06:28:21;;;;;;;6.05;2.70;;;;;;;;;;5033258;28;20029;-46
2022/06/03 06:30:50;;;;;;;4.03;2.40;;;;;;;;;;5032771;28;20423;-48
2022/06/03 06:33:36;;;;;;;4.15;2.38;;;;;;;;;;5032400;28;20028;-44
2022/06/03 06:36:18;;;;;;;7.50;2.38;;;;;;;;;;5032734;28;20505;-44
2022/06/03 06:38:59;;;;;;;5.07;2.63;;;;;;;;;;5032950;28;20127;-45
2022/06/03 06:41:25;;;;;;;6.88;2.55;;;;;;;;;;5033089;28;20029;-47
2022/06/03 06:44:01;;;;;;;5.57;2.30;;;;;;;;;;5032737;28;20441;-46
2022/06/03 06:46:28;;;;;;;5.55;2.30;;;;;;;;;;5032487;28;20048;-46
2022/06/03 06:48:55;;;;;;;4.07;2.03;;;;;;;;;;5032469;28;20087;-48
2022/06/03 06:51:40;;;;;;;4.50;2.30;;;;;;;;;;5032966;28;20052;-46
2022/06/03 06:54:13;;;;;;;5.35;2.20;;;;;;;;;;5032596;28;20036;-46
2022/06/03 06:56:52;;;;;;;5.43;2.20;;;;;;;;;;5032486;28;20041;-49
2022/06/03 06:59:25;;;;;;;4.18;1.70;;;;;;;;;;5032435;28;20036;-47
2022/06/03 07:01:55;;;;;;;4.13;2.10;;;;;;;;;;5031632;28;20045;-45
2022/06/03 07:04:28;;;;;;;3.95;1.90;;;;;;;;;;5032429;28;20024;-47
2022/06/03 07:06:58;;;;;;;3.90;1.98;;;;;;;;;;5032493;28;20026;-45
2022/06/03 07:09:25;;;;;;;12.80;2.42;;;;;;;;;;5032721;28;20030;-46
2022/06/03 07:12:13;;;;;;;5.18;1.85;;;;;;;;;;5032637;28;20487;-48
2022/06/03 07:14:44;;;;;;;5.07;2.00;;;;;;;;;;5031698;28;20025;-47
2022/06/03 07:20:17;;;;;;;5.28;1.60;;;;;;;;;;5032979;28;20045;-44
2022/06/03 07:22:58;;;;;;;4.32;2.00;;;;;;;;;;5031967;28;20164;-44
2022/06/03 07:25:27;;;;;;;5.57;1.95;;;;;;;;;;5032472;28;20029;-46
2022/06/03 07:28:23;;;;;;;3.45;1.88;;;;;;;;;;5031704;28;20104;-45
2022/06/03 07:30:50;;;;;;;3.35;1.70;;;;;;;;;;4945822;28;20067;-46
2022/06/03 07:33:37;;;;;;;6.10;2.13;;;;;;;;;;5032063;28;20704;-48
2022/06/03 07:36:08;;;;;;;4.43;1.40;;;;;;;;;;5032140;28;20030;-47
2022/06/03 07:38:35;;;;;;;4.03;1.88;;;;;;;;;;5032487;28;20025;-46
2022/06/03 07:41:30;;;;;;;3.78;1.95;;;;;;;;;;5031788;28;20037;-45
2022/06/03 07:44:10;;;;;;;3.58;1.63;;;;;;;;;;5011167;28;20116;-45
2022/06/03 07:47:00;;;;;;;4.25;1.83;;;;;;;;;;5031502;28;20546;-45
2022/06/03 07:49:29;;;;;;;6.57;1.73;;;;;;;;;;5032199;28;20034;-45
2022/06/03 07:52:00;;;;;;;3.53;1.50;;;;;;;;;;5013765;28;20124;-48
2022/06/03 07:54:29;;;;;;;3.55;1.65;;;;;;;;;;5031977;28;20416;-45
2022/06/03 07:57:02;;;;;;;3.08;1.90;;;;;;;;;;5014174;28;20594;-45
2022/06/03 07:59:32;;;;;;;3.05;1.75;;;;;;;;;;5031524;28;20033;-48
2022/06/03 08:02:00;;;;;;;6.30;1.70;;;;;;;;;;5031776;28;20052;-46
2022/06/03 08:04:29;;;;;;;8.52;2.10;;;;;;;;;;5032105;28;20026;-45
2022/06/03 08:12:34;;;;;;;4.38;1.90;;;;;;;;;;5031656;28;20087;-45
2022/06/03 08:15:13;;;;;;;5.63;1.83;;;;;;;;;;5031471;28;20029;-45
2022/06/03 08:17:41;;;;;;;2.83;1.40;;;;;;;;;;5031666;28;20545;-44
2022/06/03 08:20:08;;;;;;;4.60;1.98;;;;;;;;;;5031718;28;20502;-43
2022/06/03 08:22:35;;;;;;;6.75;1.90;;;;;;;;;;5031960;28;20055;-44
2022/06/03 08:25:02;;;;;;;3.60;1.55;;;;;;;;;;5031286;28;20428;-44
2022/06/03 08:27:32;;;;;;;3.35;1.67;;;;;;;;;;5031409;28;20022;-48
2022/06/03 08:30:11;;;;;;;2.33;1.40;;;;;;;;;;5031588;28;20041;-46
2022/06/03 08:33:00;;;;;;;2.13;1.60;;;;;;;;;;5031275;28;20025;-43
2022/06/03 08:35:32;;;;;;;3.03;1.55;;;;;;;;;;4986465;28;20037;-43
2022/06/03 08:37:59;;;;;;;2.03;1.30;;;;;;;;;;5031229;28;20514;-45
2022/06/03 08:40:44;;;;;;;3.90;1.52;;;;;;;;;;5031499;28;20108;-42
2022/06/03 08:43:14;;;;;;;4.15;1.48;;;;;;;;;;5031372;28;20033;-43
2022/06/03 08:46:00;;;;;;;3.85;1.75;;;;;;;;;;5031261;28;20033;-44
2022/06/03 08:48:31;;;;;;;2.78;1.52;;;;;;;;;;5031685;28;20034;-43
2022/06/03 08:51:00;;;;;;;2.30;1.50;;;;;;;;;;5030990;28;20044;-48
2022/06/03 08:53:29;;;;;;;4.18;1.90;;;;;;;;;;5031702;28;20108;-44
2022/06/03 08:55:56;;;;;;;2.65;1.60;;;;;;;;;;5033324;28;20034;-45
2022/06/03 08:58:27;;;;;;;3.50;1.60;;;;;;;;;;5034885;28;20036;-46
2022/06/03 09:01:04;;;;;;;2.58;1.50;;;;;;;;;;5035245;28;20044;-44
2022/06/03 09:03:36;;;;;;;4.22;1.75;;;;;;;;;;5035429;28;20022;-44
2022/06/03 09:06:06;;;;;;;;;;;;;;;;;;5035628;28;20036;-44
2022/06/03 09:08:42;;;;;;;2.90;1.63;;;;;;;;;;5034450;28;19931;-43
2022/06/03 09:11:20;;;;;;;3.67;1.70;;;;;;;;;;5034801;28;20037;-45
2022/06/03 09:13:54;;;;;;;4.07;1.30;;;;;;;;;;5033488;28;20041;-46
2022/06/03 09:16:21;;;;;;;2.05;1.50;;;;;;;;;;5023384;28;20026;-45
2022/06/03 09:18:55;;;;;;;2.95;1.50;;;;;;;;;;5045440;28;20463;-43
2022/06/03 09:21:27;;;;;;;3.53;1.65;;;;;;;;;;5034333;28;20049;-44
2022/06/03 09:24:00;;;;;;;2.80;1.60;;;;;;;;;;5034754;28;20025;-45
2022/06/03 09:26:33;;;;;;;4.53;1.88;;;;;;;;;;5034862;28;20546;-43
2022/06/03 09:28:59;;;;;;;;;;;;;;;;;;5034506;28;20037;-46
2022/06/03 09:31:27;;;;;;;3.17;1.45;;;;;;;;;;5034754;28;19909;-44
2022/06/03 09:33:55;;;;;;;4.40;2.00;;;;;;;;;;5034183;28;20025;-47
2022/06/03 09:36:23;;;;;;;4.13;1.77;;;;;;;;;;5034102;28;20028;-43
2022/06/03 09:38:58;;;;;;;3.85;1.40;;;;;;;;;;5033968;28;20117;-45
2022/06/03 09:41:27;;;;;;;3.72;1.50;;;;;;;;;;5034515;28;20071;-45
2022/06/03 09:43:56;;;;;;;3.92;1.83;;;;;;;;;;5033854;28;20052;-45
2022/06/03 09:46:25;;;;;;;4.07;1.30;;;;;;;;;;5034432;28;20026;-47
2022/06/03 09:48:52;;;;;;;3.20;1.45;;;;;;;;;;5033031;28;20095;-47
2022/06/03 09:51:55;;;;;;;4.93;1.35;;;;;;;;;;5034172;28;20491;-46
2022/06/03 09:54:10;;;;;;;2.42;1.40;;;;;;;;;;5034238;28;20041;-45
2022/06/03 09:56:38;;;;;;;3.00;1.50;;;;;;;;;;5033622;28;20025;-45
2022/06/03 09:59:05;;;;;;;3.40;1.65;;;;;;;;;;5034379;28;20097;-47
2022/06/03 10:01:32;;;;;;;6.10;1.80;;;;;;;;;;5015480;28;20069;-47
2022/06/03 10:04:01;;;;;;;6.70;2.10;;;;;;;;;;5033905;28;20049;-44
2022/06/03 10:06:43;;;;;;;5.13;1.60;;;;;;;;;;5033390;28;20442;-45
2022/06/03 10:17:48;;;;;;;4.45;1.92;;;;;;;;;;5034299;28;20092;-47
2022/06/03 10:20:15;;;;;;;3.55;1.98;;;;;;;;;;5033879;28;20583;-45
2022/06/03 10:22:44;;;;;;;7.05;2.13;;;;;;;;;;5033331;28;20040;-46
2022/06/03 10:25:12;;;;;;;4.03;1.90;;;;;;;;;;5033344;28;20387;-44
2022/06/03 10:27:39;;;;;;;3.75;2.13;;;;;;;;;;5033042;28;20053;-46
2022/06/03 10:30:08;;;;;;;3.50;1.75;;;;;;;;;;5032535;28;20041;-48
2022/06/03 10:32:36;;;;;;;2.92;1.80;;;;;;;;;;5033729;28;20478;-51
2022/06/03 10:35:16;;;;;;;5.93;2.20;;;;;;;;;;5031935;28;20029;-48
2022/06/03 10:37:51;;;;;;;5.32;2.20;;;;;;;;;;5032046;28;20076;-46
2022/06/03 10:40:19;;;;;;;6.03;2.15;;;;;;;;;;5032854;28;20040;-47
2022/06/03 10:42:46;;;;;;;5.55;1.98;;;;;;;;;;5033396;28;20024;-46
2022/06/03 10:45:13;;;;;;;5.32;2.10;;;;;;;;;;5015107;28;20431;-45
2022/06/03 10:47:43;;;;;;;6.78;2.25;;;;;;;;;;5032865;28;20018;-45
2022/06/03 10:50:38;;;;;;;6.35;2.30;;;;;;;;;;5033004;28;20033;-46
2022/06/03 11:01:33;;;;;;;5.10;2.50;;;;;;;;;;5033044;28;20754;-43
2022/06/03 11:04:01;;;;;;;3.78;2.42;;;;;;;;;;5032435;28;20029;-43
2022/06/03 11:06:33;;;;;;;7.78;2.42;;;;;;;;;;5014612;28;20364;-44
2022/06/03 11:09:00;;;;;;;;;;;;;;;;;;5032960;28;20037;-51
2022/06/03 11:11:34;;;;;;;7.03;2.65;;;;;;;;;;5032179;28;20619;-47
2022/06/03 11:14:22;;;;;;;7.82;2.55;;;;;;;;;;5032719;28;20095;-44
2022/06/03 11:17:06;;;;;;;11.77;2.72;;;;;;;;;;5031935;28;20029;-50
2022/06/03 11:19:47;;;;;;;17.15;2.80;;;;;;;;;;5032757;28;20426;-43
2022/06/03 11:22:17;;;;;;;21.92;3.97;;;;;;;;;;5031961;28;20029;-48
2022/06/03 11:24:51;;;;;;;37.63;3.60;;;;;;;;;;5037512;28;20025;-51
2022/06/03 11:27:20;;;;;;;251.50;23.45;;;;;;;;;;5040256;28;20017;-48
2022/06/03 11:29:48;;;;;;;268.27;26.02;;;;;;;;;;5051201;28;20398;-49
2022/06/03 11:32:18;;;;;;;147.23;12.27;;;;;;;;;;5051991;28;20040;-53
2022/06/03 11:34:51;;;;;;;59.05;7.97;;;;;;;;;;5051676;28;20021;-49
2022/06/03 11:37:27;;;;;;;63.60;7.63;;;;;;;;;;5052259;28;20383;-52
2022/06/03 11:40:00;;;;;;;54.33;7.78;;;;;;;;;;5052315;28;20117;-48
2022/06/03 11:42:29;;;;;;;50.83;7.25;;;;;;;;;;5051510;28;20037;-48
2022/06/03 11:44:59;;;;;;;40.38;7.30;;;;;;;;;;5051972;28;20027;-45
2022/06/03 11:47:29;;;;;;;46.00;5.82;;;;;;;;;;5033912;28;20117;-48
2022/06/03 11:49:56;;;;;;;196.30;17.08;;;;;;;;;;5012225;28;20038;-45
2022/06/03 11:52:23;;;;;;;109.80;11.15;;;;;;;;;;5019584;28;20025;-53
2022/06/03 11:54:52;;;;;;;58.45;7.65;;;;;;;;;;5031274;28;20026;-53
2022/06/03 11:57:19;;;;;;;44.80;6.22;;;;;;;;;;5031978;28;20036;-54
2022/06/03 11:59:52;;;;;;;48.67;6.97;;;;;;;;;;5030991;28;20474;-52
2022/06/03 12:02:37;;;;;;;46.63;7.03;;;;;;;;;;5031804;28;20057;-53
2022/06/03 12:05:13;;;;;;;44.67;7.90;;;;;;;;;;5031495;28;20060;-56
2022/06/03 12:07:47;;;;;;;41.70;7.53;;;;;;;;;;5031499;28;20041;-56
2022/06/03 12:10:43;;;;;;;56.58;7.25;;;;;;;;;;5032148;28;20037;-56
2022/06/03 12:13:15;;;;;;;47.10;7.28;;;;;;;;;;5016419;28;20376;-57
2022/06/03 12:15:54;;;;;;;50.40;8.10;;;;;;;;;;5031843;28;20025;-49
2022/06/03 12:18:39;;;;;;;54.72;8.40;;;;;;;;;;5031153;28;20120;-57
2022/06/03 12:21:13;;;;;;;63.25;8.60;;;;;;;;;;5031766;28;20033;-54
2022/06/03 12:23:43;;;;;;;59.15;7.60;;;;;;;;;;5014628;28;20100;-55
2022/06/03 12:26:13;;;;;;;51.05;7.88;;;;;;;;;;5029150;28;20597;-51
2022/06/03 12:28:45;;;;;;;44.70;7.30;;;;;;;;;;5031802;28;20021;-55
2022/06/03 12:31:11;;;;;;;45.72;7.15;;;;;;;;;;5033277;28;20132;-54
2022/06/03 12:33:55;;;;;;;44.10;7.32;;;;;;;;;;5035611;28;20029;-57
2022/06/03 12:36:25;;;;;;;38.45;6.93;;;;;;;;;;5035326;28;20387;-56
2022/06/03 12:39:01;;;;;;;43.58;7.20;;;;;;;;;;5035352;28;20060;-57
2022/06/03 12:41:47;;;;;;;38.42;6.63;;;;;;;;;;5036167;28;20450;-57
2022/06/03 12:44:46;;;;;;;34.03;6.57;;;;;;;;;;5036567;28;20021;-55
2022/06/03 12:47:19;;;;;;;34.53;7.80;;;;;;;;;;4992985;28;20037;-56
2022/06/03 12:49:46;;;;;;;28.13;6.55;;;;;;;;;;5034984;28;20025;-54
2022/06/03 12:52:35;;;;;;;24.35;5.72;;;;;;;;;;5034965;28;20021;-56
2022/06/03 12:55:21;;;;;;;34.05;6.10;;;;;;;;;;5035313;28;20388;-56
2022/06/03 12:57:52;;;;;;;21.20;5.90;;;;;;;;;;5034629;28;20036;-56
2022/06/03 13:00:19;;;;;;;28.17;5.82;;;;;;;;;;5035311;28;20060;-51
2022/06/03 13:03:02;;;;;;;23.45;5.65;;;;;;;;;;5034642;28;20117;-56
2022/06/03 13:05:43;;;;;;;28.85;5.90;;;;;;;;;;5034921;28;20464;-53
2022/06/03 13:08:28;;;;;;;29.83;5.07;;;;;;;;;;5035061;28;20017;-56
2022/06/03 13:10:58;;;;;;;21.58;5.63;;;;;;;;;;5034469;28;20029;-54
2022/06/03 13:13:32;;;;;;;19.52;4.95;;;;;;;;;;5035220;28;20483;-54
2022/06/03 13:16:19;;;;;;;15.55;4.65;;;;;;;;;;5034059;28;20029;-55
2022/06/03 13:18:47;;;;;;;21.33;4.30;;;;;;;;;;5034944;28;20026;-56
2022/06/03 13:21:17;;;;;;;18.23;4.35;;;;;;;;;;5034545;28;20084;-56
2022/06/03 13:23:47;;;;;;;19.27;4.50;;;;;;;;;;5034436;28;20037;-53
2022/06/03 13:26:23;;;;;;;16.20;4.28;;;;;;;;;;5034672;28;20025;-57
2022/06/03 13:28:54;;;;;;;18.85;4.22;;;;;;;;;;5033984;28;20033;-56
2022/06/03 13:31:25;;;;;;;28.92;4.53;;;;;;;;;;5034597;28;20652;-56
2022/06/03 13:34:00;;;;;;;24.48;4.45;;;;;;;;;;5034271;28;20087;-55
2022/06/03 13:36:50;;;;;;;14.13;4.07;;;;;;;;;;5034261;28;20041;-54
2022/06/03 13:39:29;;;;;;;21.13;4.65;;;;;;;;;;4997934;28;20037;-56
2022/06/03 13:44:56;;;;;;;15.30;3.60;;;;;;;;;;5032610;28;20044;-54
2022/06/03 13:47:26;;;;;;;12.68;3.40;;;;;;;;;;5016249;28;20116;-49
2022/06/03 13:49:55;;;;;;;18.48;4.07;;;;;;;;;;5033870;28;20037;-54
2022/06/03 13:52:26;;;;;;;15.07;3.72;;;;;;;;;;5033813;28;20028;-52
2022/06/03 13:54:55;;;;;;;13.57;3.72;;;;;;;;;;5031920;28;20112;-52
2022/06/03 13:57:35;;;;;;;15.93;4.03;;;;;;;;;;5012904;28;20593;-57
2022/06/03 14:00:14;;;;;;;14.23;3.70;;;;;;;;;;5013243;28;20038;-53
2022/06/03 14:02:42;;;;;;;20.55;4.05;;;;;;;;;;5012522;28;20038;-50
2022/06/03 14:05:13;;;;;;;15.93;3.78;;;;;;;;;;5013337;28;20030;-54
2022/06/03 14:07:45;;;;;;;18.55;3.38;;;;;;;;;;5013163;28;20112;-56
2022/06/03 14:10:15;;;;;;;15.15;3.22;;;;;;;;;;5016531;28;20076;-57
2022/06/03 14:13:01;;;;;;;13.45;3.15;;;;;;;;;;5033235;28;20041;-56
2022/06/03 14:15:31;;;;;;;19.33;3.30;;;;;;;;;;5031940;28;20034;-54
2022/06/03 14:18:00;;;;;;;13.55;3.35;;;;;;;;;;5031999;28;20104;-54
2022/06/03 14:20:30;;;;;;;17.92;3.05;;;;;;;;;;5032546;28;20041;-54
2022/06/03 14:23:22;;;;;;;15.65;3.50;;;;;;;;;;5032793;28;20021;-54
2022/06/03 14:25:51;;;;;;;17.13;3.17;;;;;;;;;;5032909;28;20144;-54
2022/06/03 14:28:41;;;;;;;15.15;3.13;;;;;;;;;;5032254;28;20052;-53
2022/06/03 14:31:15;;;;;;;16.83;3.75;;;;;;;;;;4986966;28;20566;-52
2022/06/03 14:33:43;;;;;;;20.83;3.20;;;;;;;;;;5032610;28;20086;-54
2022/06/03 14:36:12;;;;;;;20.90;3.05;;;;;;;;;;5032457;28;20495;-57
2022/06/03 14:38:41;;;;;;;15.77;3.30;;;;;;;;;;5031884;28;20507;-54
2022/06/03 14:41:14;;;;;;;23.23;3.03;;;;;;;;;;5032728;28;20029;-50
2022/06/03 14:43:41;;;;;;;21.92;3.33;;;;;;;;;;5032298;28;20040;-47
2022/06/03 14:46:16;;;;;;;21.08;3.25;;;;;;;;;;5032446;28;20502;-55
2022/06/03 14:48:48;;;;;;;22.52;3.20;;;;;;;;;;5032095;28;20565;-49
2022/06/03 14:51:31;;;;;;;20.98;3.92;;;;;;;;;;5032031;28;20052;-55
2022/06/03 14:54:02;;;;;;;19.48;3.83;;;;;;;;;;5014725;28;20067;-57
2022/06/03 14:56:35;;;;;;;25.90;3.60;;;;;;;;;;5031626;28;20037;-57
2022/06/03 14:59:07;;;;;;;29.23;3.83;;;;;;;;;;5031779;28;20025;-52
2022/06/03 15:01:42;;;;;;;28.05;4.85;;;;;;;;;;5031061;28;20128;-49
2022/06/03 15:04:12;;;;;;;32.83;4.43;;;;;;;;;;5028693;28;20121;-53
2022/06/03 15:06:41;;;;;;;25.45;4.53;;;;;;;;;;5031473;28;20038;-54
2022/06/03 15:09:14;;;;;;;31.75;4.85;;;;;;;;;;5013917;28;20037;-55
2022/06/03 15:12:08;;;;;;;23.35;3.95;;;;;;;;;;5031975;28;20136;-53
2022/06/03 15:14:38;;;;;;;32.13;4.72;;;;;;;;;;5026775;28;20088;-52
2022/06/03 15:17:05;;;;;;;24.33;3.70;;;;;;;;;;5031607;28;20121;-52
2022/06/03 15:19:50;;;;;;;29.00;4.63;;;;;;;;;;5014089;28;20029;-47
2022/06/03 15:22:23;;;;;;;26.42;4.22;;;;;;;;;;5031370;28;20037;-54
2022/06/03 15:25:02;;;;;;;32.40;4.18;;;;;;;;;;5032054;28;20174;-53
2022/06/03 15:27:49;;;;;;;31.60;4.38;;;;;;;;;;5030539;28;20576;-48
2022/06/03 15:30:30;;;;;;;23.27;5.18;;;;;;;;;;5015097;28;20049;-51
2022/06/03 15:32:58;;;;;;;26.77;5.20;;;;;;;;;;5031150;28;20037;-51
2022/06/03 15:35:29;;;;;;;25.60;5.72;;;;;;;;;;5031586;28;20411;-52
2022/06/03 15:37:58;;;;;;;25.43;5.10;;;;;;;;;;5031718;28;20522;-51
2022/06/03 15:40:27;;;;;;;21.33;5.13;;;;;;;;;;5030876;28;20036;-52
2022/06/03 15:42:55;;;;;;;28.35;5.47;;;;;;;;;;5031230;28;20499;-47
2022/06/03 15:45:42;;;;;;;29.15;6.22;;;;;;;;;;5030656;28;20061;-54
2022/06/03 15:48:17;;;;;;;30.63;5.43;;;;;;;;;;5031061;28;20056;-56
2022/06/03 15:50:47;;;;;;;40.70;5.03;;;;;;;;;;5030912;28;20459;-50
2022/06/03 15:53:24;;;;;;;26.65;5.10;;;;;;;;;;5013426;28;20033;-52
2022/06/03 15:55:54;;;;;;;27.65;4.70;;;;;;;;;;5030866;28;20112;-49